Time;durP1;ratioP1;P1;durP2;ratioP2;P2;SDS_P1;SDS_P2;PMS_P1;PMS_P2;Temp;Humidity;BMP_temperature;BMP_pressure;BME280_temperature;BME280_humidity;BME280_pressure;Samples;Min_cycle;Max_cycle;Signal;HPM_P1;HPM_P2
2023/12/09 00:02:07;;;;;;;2.75;1.40;;;23.00;47.40;;;;;;5103439;28;20035;-42
2023/12/09 00:04:33;;;;;;;2.65;1.45;;;23.00;47.50;;;;;;5096351;28;20028;-43
2023/12/09 00:06:59;;;;;;;3.05;1.52;;;23.00;47.40;;;;;;5100869;28;20036;-42
2023/12/09 00:09:25;;;;;;;4.43;1.60;;;23.00;47.40;;;;;;5099878;28;20036;-42
2023/12/09 00:11:52;;;;;;;3.25;1.77;;;23.00;47.30;;;;;;5101682;28;20039;-44
2023/12/09 00:14:18;;;;;;;2.27;1.50;;;23.00;47.40;;;;;;5100596;28;20032;-42
2023/12/09 00:16:45;;;;;;;1.80;1.70;;;23.00;47.30;;;;;;5101387;28;20322;-43
2023/12/09 00:19:12;;;;;;;2.15;1.35;;;23.00;47.40;;;;;;5103225;28;20058;-47
2023/12/09 00:21:39;;;;;;;2.45;1.45;;;23.00;47.30;;;;;;5103616;28;20028;-43
2023/12/09 00:24:05;;;;;;;1.58;1.38;;;23.00;47.30;;;;;;5102723;28;20035;-44
2023/12/09 00:26:31;;;;;;;2.43;1.47;;;23.00;47.30;;;;;;5098779;28;20071;-41
2023/12/09 00:28:57;;;;;;;3.63;1.52;;;23.00;47.30;;;;;;5100539;28;20020;-42
2023/12/09 00:31:24;;;;;;;2.53;1.30;;;23.00;47.30;;;;;;5102483;28;20130;-41
2023/12/09 00:33:50;;;;;;;1.73;1.40;;;23.00;47.30;;;;;;5101607;28;20043;-41
2023/12/09 00:36:16;;;;;;;2.15;1.20;;;23.00;47.30;;;;;;5101376;28;20455;-41
2023/12/09 00:38:42;;;;;;;2.00;1.50;;;23.00;47.30;;;;;;5100468;28;20032;-43
2023/12/09 00:41:09;;;;;;;1.65;1.20;;;23.00;47.30;;;;;;5102233;28;20087;-41
2023/12/09 00:43:35;;;;;;;3.17;1.48;;;23.00;47.30;;;;;;5101116;28;20016;-43
2023/12/09 00:46:01;;;;;;;1.30;1.20;;;23.00;47.30;;;;;;5102324;28;20087;-42
2023/12/09 00:48:27;;;;;;;1.85;1.30;;;23.00;47.10;;;;;;5101841;28;20030;-41
2023/12/09 00:50:53;;;;;;;3.60;1.50;;;23.00;47.20;;;;;;5102373;28;20067;-43
2023/12/09 00:53:19;;;;;;;2.45;1.50;;;23.00;47.20;;;;;;5102505;28;20056;-42
2023/12/09 00:55:46;;;;;;;2.88;1.40;;;23.00;47.30;;;;;;5103586;28;20024;-41
2023/12/09 00:58:12;;;;;;;2.42;1.58;;;23.00;47.40;;;;;;5101937;28;20028;-42
2023/12/09 01:00:38;;;;;;;2.05;1.40;;;23.00;47.30;;;;;;5102955;28;20101;-40
2023/12/09 01:03:04;;;;;;;1.60;1.27;;;23.00;47.30;;;;;;5102228;28;20081;-43
2023/12/09 01:05:30;;;;;;;3.28;1.40;;;23.00;47.30;;;;;;5098733;28;20024;-41
2023/12/09 01:07:56;;;;;;;2.03;1.40;;;23.00;47.30;;;;;;5094484;28;20036;-42
2023/12/09 01:10:23;;;;;;;2.33;1.40;;;23.00;47.30;;;;;;5102536;28;20032;-41
2023/12/09 01:12:49;;;;;;;1.40;1.30;;;23.00;47.30;;;;;;5098184;28;20037;-43
2023/12/09 01:15:16;;;;;;;2.10;1.48;;;23.00;47.40;;;;;;5100846;28;20043;-41
2023/12/09 01:17:42;;;;;;;3.17;1.50;;;23.00;47.30;;;;;;5102189;28;20107;-42
2023/12/09 01:20:08;;;;;;;2.17;1.25;;;23.00;47.30;;;;;;5094992;28;20281;-43
2023/12/09 01:22:34;;;;;;;4.90;1.42;;;23.00;47.30;;;;;;5102075;28;20038;-42
2023/12/09 01:25:00;;;;;;;1.90;1.40;;;23.00;47.30;;;;;;5102008;28;20091;-42
2023/12/09 01:27:27;;;;;;;1.98;1.40;;;23.00;47.30;;;;;;5102345;28;20036;-42
2023/12/09 01:29:53;;;;;;;5.22;1.48;;;23.00;47.40;;;;;;5102412;28;20039;-42
2023/12/09 01:32:19;;;;;;;1.70;1.20;;;22.90;47.50;;;;;;5100825;28;20381;-41
2023/12/09 01:34:45;;;;;;;2.38;1.30;;;22.90;47.40;;;;;;5101898;28;20028;-41
2023/12/09 01:37:11;;;;;;;2.05;1.20;;;22.90;47.30;;;;;;5101410;28;20028;-43
2023/12/09 01:39:40;;;;;;;2.47;1.40;;;23.00;47.30;;;;;;5095264;28;20146;-41
2023/12/09 01:42:08;;;;;;;2.17;1.33;;;22.90;47.30;;;;;;5101591;28;20528;-44
2023/12/09 01:44:34;;;;;;;2.30;1.40;;;22.90;47.30;;;;;;5097606;28;20122;-43
2023/12/09 01:47:00;;;;;;;2.53;1.67;;;22.90;47.20;;;;;;5098469;28;20036;-41
2023/12/09 01:49:26;;;;;;;1.77;1.10;;;22.90;47.30;;;;;;5102014;28;20086;-41
2023/12/09 01:51:53;;;;;;;2.13;1.55;;;22.90;47.30;;;;;;5101945;28;20048;-41
2023/12/09 01:54:20;;;;;;;2.35;1.45;;;22.90;47.40;;;;;;5101108;28;20230;-41
2023/12/09 01:56:46;;;;;;;1.88;1.20;;;22.90;47.40;;;;;;5101717;28;20088;-42
2023/12/09 01:59:13;;;;;;;1.50;1.17;;;22.90;47.30;;;;;;5098420;28;20027;-41
2023/12/09 02:01:39;;;;;;;2.20;1.30;;;22.90;47.30;;;;;;5079359;28;20060;-41
2023/12/09 02:04:05;;;;;;;1.20;1.07;;;22.80;47.50;;;;;;5098561;28;20056;-42
2023/12/09 02:06:31;;;;;;;3.63;1.40;;;22.70;47.60;;;;;;5094750;28;20093;-41
2023/12/09 02:08:58;;;;;;;2.33;1.45;;;22.50;47.80;;;;;;5102059;28;20110;-41
2023/12/09 02:11:50;;;;;;;1.58;1.20;;;22.40;47.90;;;;;;5096812;28;20499;-41
2023/12/09 02:14:38;;;;;;;1.27;1.17;;;22.30;48.00;;;;;;5091389;28;20044;-43
2023/12/09 02:17:19;;;;;;;1.52;1.23;;;22.20;48.20;;;;;;5100632;28;20024;-40
2023/12/09 02:19:45;;;;;;;2.05;1.35;;;22.20;48.40;;;;;;5088127;28;20070;-42
2023/12/09 02:22:11;;;;;;;1.60;0.98;;;22.30;48.60;;;;;;5100809;28;20036;-41
2023/12/09 02:24:37;;;;;;;2.03;1.50;;;22.30;48.50;;;;;;5101778;28;20098;-40
2023/12/09 02:27:12;;;;;;;2.38;1.55;;;22.20;48.50;;;;;;5101544;28;20031;-41
2023/12/09 02:30:02;;;;;;;1.40;1.05;;;22.20;48.70;;;;;;5097329;28;20088;-42
2023/12/09 02:32:31;;;;;;;2.15;1.40;;;22.10;48.80;;;;;;5101516;28;20036;-40
2023/12/09 02:34:57;;;;;;;1.70;1.30;;;22.00;48.80;;;;;;5099945;28;20073;-41
2023/12/09 02:37:23;;;;;;;2.20;1.20;;;21.90;48.90;;;;;;5098464;28;20123;-46
2023/12/09 02:39:50;;;;;;;1.85;1.20;;;21.90;49.10;;;;;;5095146;28;20043;-42
2023/12/09 02:42:16;;;;;;;2.03;1.20;;;22.10;49.00;;;;;;5099234;28;20035;-39
2023/12/09 02:44:45;;;;;;;1.97;1.23;;;22.30;48.80;;;;;;5100404;28;20066;-40
2023/12/09 02:47:13;;;;;;;1.65;1.17;;;22.30;48.70;;;;;;5104894;28;20091;-40
2023/12/09 02:49:39;;;;;;;2.85;1.10;;;22.40;48.50;;;;;;5105393;28;20036;-44
2023/12/09 02:52:05;;;;;;;2.90;1.05;;;22.40;48.40;;;;;;5104347;28;20119;-41
2023/12/09 02:54:31;;;;;;;2.00;1.20;;;22.50;48.50;;;;;;5099745;28;20032;-41
2023/12/09 02:56:57;;;;;;;2.78;1.20;;;22.50;48.50;;;;;;5098912;28;20028;-42
2023/12/09 02:59:23;;;;;;;2.15;1.17;;;22.50;48.50;;;;;;5097740;28;20067;-42
2023/12/09 03:01:50;;;;;;;2.00;1.15;;;22.60;48.40;;;;;;5105586;28;20032;-44
2023/12/09 03:04:16;;;;;;;1.75;1.13;;;22.60;48.40;;;;;;5104294;28;20032;-42
2023/12/09 03:06:42;;;;;;;2.05;1.40;;;22.60;48.30;;;;;;5105327;28;20029;-40
2023/12/09 03:09:08;;;;;;;1.20;1.10;;;22.60;48.30;;;;;;5104802;28;20047;-40
2023/12/09 03:11:34;;;;;;;2.70;1.20;;;22.50;48.40;;;;;;5094863;28;20048;-41
2023/12/09 03:14:00;;;;;;;1.83;1.33;;;22.40;48.50;;;;;;5099671;28;20100;-40
2023/12/09 03:16:26;;;;;;;1.70;1.20;;;22.30;48.70;;;;;;5104718;28;20119;-40
2023/12/09 03:18:52;;;;;;;1.75;1.27;;;22.20;48.80;;;;;;5104889;28;20083;-42
2023/12/09 03:21:18;;;;;;;1.83;1.50;;;22.10;48.80;;;;;;5090678;28;20054;-41
2023/12/09 03:23:44;;;;;;;2.25;1.45;;;22.10;48.90;;;;;;5088747;28;20037;-42
2023/12/09 03:26:17;;;;;;;1.60;1.23;;;22.00;49.00;;;;;;5097433;28;20036;-41
2023/12/09 03:28:43;;;;;;;1.75;1.38;;;22.10;49.40;;;;;;5097646;28;20028;-41
2023/12/09 03:31:13;;;;;;;1.85;1.20;;;22.20;49.30;;;;;;5103258;28;20039;-41
2023/12/09 03:33:40;;;;;;;1.42;1.33;;;22.10;49.20;;;;;;5092911;28;20443;-42
2023/12/09 03:36:10;;;;;;;1.45;1.35;;;22.10;49.20;;;;;;5100583;28;20058;-42
2023/12/09 03:38:36;;;;;;;43.95;3.60;;;22.00;49.40;;;;;;5100627;28;20397;-43
2023/12/09 03:41:04;;;;;;;11.40;1.88;;;22.00;49.80;;;;;;5104080;28;20032;-42
2023/12/09 03:43:30;;;;;;;3.17;1.50;;;21.90;49.60;;;;;;5094343;28;20042;-42
2023/12/09 03:45:56;;;;;;;7.78;2.05;;;21.90;50.10;;;;;;5087837;28;20052;-44
2023/12/09 03:48:22;;;;;;;5.13;1.67;;;21.90;49.70;;;;;;5088201;28;20062;-42
2023/12/09 03:50:48;;;;;;;4.40;1.42;;;22.00;49.80;;;;;;5087121;28;20573;-44
2023/12/09 03:53:14;;;;;;;3.33;1.40;;;22.10;49.60;;;;;;5093242;28;20076;-42
2023/12/09 03:55:41;;;;;;;3.85;1.63;;;22.20;49.40;;;;;;5096591;28;20137;-43
2023/12/09 03:58:08;;;;;;;1.45;1.35;;;22.30;49.30;;;;;;5096232;28;20028;-41
2023/12/09 04:00:35;;;;;;;1.77;1.20;;;22.40;49.20;;;;;;5097775;28;20492;-42
2023/12/09 04:03:01;;;;;;;1.80;1.23;;;22.40;49.20;;;;;;5102056;28;20058;-42
2023/12/09 04:05:27;;;;;;;2.90;1.42;;;22.40;49.10;;;;;;5097043;28;20047;-42
2023/12/09 04:07:53;;;;;;;2.85;1.40;;;22.50;49.10;;;;;;5102821;28;20365;-43
2023/12/09 04:10:19;;;;;;;1.63;1.40;;;22.50;48.90;;;;;;5103207;28;20039;-42
2023/12/09 04:12:45;;;;;;;1.67;1.20;;;22.50;48.80;;;;;;5103401;28;20100;-42
2023/12/09 04:15:11;;;;;;;2.20;1.40;;;22.50;48.80;;;;;;5096822;28;20143;-43
2023/12/09 04:17:38;;;;;;;1.65;1.25;;;22.50;48.80;;;;;;5104296;28;20066;-41
2023/12/09 04:20:13;;;;;;;1.95;1.50;;;22.50;48.90;;;;;;5102110;28;20024;-40
2023/12/09 04:22:39;;;;;;;2.22;1.60;;;22.30;49.00;;;;;;5095140;28;20028;-43
2023/12/09 04:25:06;;;;;;;2.65;1.25;;;22.30;49.10;;;;;;5096211;28;20485;-42
2023/12/09 04:27:33;;;;;;;1.80;1.35;;;22.20;49.20;;;;;;5102866;28;20077;-41
2023/12/09 04:30:00;;;;;;;2.15;1.40;;;22.10;49.20;;;;;;5103137;28;20032;-43
2023/12/09 04:32:28;;;;;;;1.95;1.48;;;22.10;49.40;;;;;;5099728;28;20560;-41
2023/12/09 04:34:54;;;;;;;2.75;1.60;;;22.00;49.40;;;;;;5097008;28;20047;-43
2023/12/09 04:37:20;;;;;;;2.20;1.60;;;22.00;49.40;;;;;;5095578;28;20028;-39
2023/12/09 04:39:46;;;;;;;3.58;1.73;;;22.00;49.60;;;;;;5101586;28;20415;-42
2023/12/09 04:42:12;;;;;;;2.58;1.63;;;22.10;49.90;;;;;;5098738;28;20107;-42
2023/12/09 04:44:38;;;;;;;3.60;1.38;;;22.10;49.70;;;;;;5091666;28;20021;-45
2023/12/09 04:47:04;;;;;;;1.90;1.30;;;22.00;49.60;;;;;;5094545;28;20020;-40
2023/12/09 04:49:31;;;;;;;2.35;1.30;;;22.00;49.70;;;;;;5104117;28;20050;-41
2023/12/09 04:51:57;;;;;;;2.15;1.65;;;21.90;49.70;;;;;;5096248;28;20056;-41
2023/12/09 04:54:23;;;;;;;1.75;1.50;;;21.90;49.70;;;;;;5095434;28;20059;-42
2023/12/09 04:56:49;;;;;;;2.38;1.75;;;21.90;49.80;;;;;;5097774;28;20054;-42
2023/12/09 04:59:15;;;;;;;3.97;1.50;;;21.90;50.20;;;;;;5102237;28;20028;-42
2023/12/09 05:01:41;;;;;;;2.65;1.45;;;22.10;50.20;;;;;;5091771;28;20035;-41
2023/12/09 05:04:11;;;;;;;2.00;1.52;;;22.20;49.80;;;;;;5087379;28;20035;-42
2023/12/09 05:06:37;;;;;;;1.85;1.50;;;22.10;49.80;;;;;;5101323;28;20071;-42
2023/12/09 05:09:04;;;;;;;2.97;1.60;;;22.00;49.80;;;;;;5100977;28;20046;-41
2023/12/09 05:11:30;;;;;;;2.55;1.73;;;22.00;49.80;;;;;;5100220;28;20036;-43
2023/12/09 05:13:56;;;;;;;2.13;1.70;;;21.90;49.80;;;;;;5090177;28;20052;-40
2023/12/09 05:16:22;;;;;;;2.67;1.50;;;21.90;49.90;;;;;;5088260;28;20032;-40
2023/12/09 05:18:48;;;;;;;3.13;1.70;;;21.90;50.00;;;;;;5090979;28;20089;-40
2023/12/09 05:21:14;;;;;;;2.55;1.60;;;21.80;50.00;;;;;;5102377;28;20057;-41
2023/12/09 05:23:41;;;;;;;2.03;1.30;;;21.80;50.20;;;;;;5103021;28;20055;-43
2023/12/09 05:26:07;;;;;;;1.48;1.38;;;21.90;50.40;;;;;;5102669;28;20036;-41
2023/12/09 05:28:33;;;;;;;3.83;1.80;;;21.90;50.30;;;;;;5102984;28;20032;-41
2023/12/09 05:30:59;;;;;;;1.77;1.40;;;21.80;50.20;;;;;;5102445;28;20032;-42
2023/12/09 05:33:25;;;;;;;1.92;1.40;;;21.80;50.20;;;;;;5100848;28;20044;-42
2023/12/09 05:35:51;;;;;;;2.53;1.75;;;21.80;50.30;;;;;;5093675;28;20059;-41
2023/12/09 05:38:17;;;;;;;2.10;1.60;;;21.70;50.40;;;;;;5094670;28;20032;-44
2023/12/09 05:40:43;;;;;;;2.33;1.48;;;21.80;50.50;;;;;;5095302;28;20142;-40
2023/12/09 05:43:10;;;;;;;1.90;1.42;;;21.90;50.20;;;;;;5092343;28;20024;-42
2023/12/09 05:45:36;;;;;;;2.50;1.48;;;22.10;50.00;;;;;;5084652;28;20028;-41
2023/12/09 05:48:02;;;;;;;4.27;2.03;;;22.10;50.00;;;;;;5088983;28;20117;-42
2023/12/09 05:50:28;;;;;;;5.25;1.75;;;22.00;50.10;;;;;;5094811;28;20054;-40
2023/12/09 05:52:54;;;;;;;3.63;1.75;;;21.90;50.30;;;;;;5102804;28;20050;-40
2023/12/09 05:55:21;;;;;;;1.50;1.40;;;21.90;50.30;;;;;;5093755;28;20047;-41
2023/12/09 05:57:47;;;;;;;1.70;1.60;;;21.80;50.20;;;;;;5102134;28;20028;-42
2023/12/09 06:00:13;;;;;;;1.67;1.58;;;21.80;50.90;;;;;;5100728;28;20024;-41
2023/12/09 06:02:41;;;;;;;2.17;1.87;;;21.80;50.40;;;;;;5099435;28;20047;-42
2023/12/09 06:05:07;;;;;;;2.38;1.75;;;21.70;50.40;;;;;;5099560;28;20077;-43
2023/12/09 06:07:34;;;;;;;;;;;21.70;50.60;;;;;;5096180;28;20391;-44
2023/12/09 06:10:00;;;;;;;2.08;1.63;;;21.80;50.60;;;;;;5101303;28;19919;-43
2023/12/09 06:12:26;;;;;;;3.85;1.65;;;21.80;50.60;;;;;;5100498;28;20032;-41
2023/12/09 06:14:53;;;;;;;1.83;1.67;;;21.80;50.50;;;;;;5095219;28;20066;-43
2023/12/09 06:17:19;;;;;;;2.08;1.70;;;21.70;50.60;;;;;;5094272;28;20028;-43
2023/12/09 06:19:45;;;;;;;2.17;1.98;;;21.70;50.70;;;;;;5097958;28;20040;-43
2023/12/09 06:22:11;;;;;;;1.92;1.40;;;21.70;50.80;;;;;;5104497;28;20554;-42
2023/12/09 06:24:37;;;;;;;4.45;1.77;;;21.80;50.60;;;;;;5101460;28;20225;-43
2023/12/09 06:27:04;;;;;;;2.03;1.63;;;21.90;50.40;;;;;;5102292;28;20042;-43
2023/12/09 06:29:30;;;;;;;1.63;1.52;;;22.00;50.20;;;;;;5106245;28;20054;-43
2023/12/09 06:31:56;;;;;;;1.92;1.73;;;22.00;50.30;;;;;;5105139;28;20085;-43
2023/12/09 06:34:22;;;;;;;2.33;1.70;;;21.90;50.40;;;;;;5105231;28;20032;-44
2023/12/09 06:36:48;;;;;;;1.77;1.48;;;21.90;50.50;;;;;;5105354;28;20039;-45
2023/12/09 06:39:14;;;;;;;1.67;1.58;;;21.80;50.50;;;;;;5098034;28;20517;-43
2023/12/09 06:41:41;;;;;;;1.88;1.70;;;21.80;50.50;;;;;;5105665;28;20054;-44
2023/12/09 06:44:07;;;;;;;2.80;1.80;;;21.70;50.50;;;;;;5104540;28;20048;-44
2023/12/09 06:46:37;;;;;;;3.23;1.90;;;21.70;50.50;;;;;;5098221;28;20105;-44
2023/12/09 06:49:05;;;;;;;3.55;1.40;;;21.70;50.70;;;;;;5104587;28;20028;-44
2023/12/09 06:51:31;;;;;;;;;;;21.70;50.70;;;;;;5105643;28;20075;-44
2023/12/09 06:53:57;;;;;;;1.95;1.50;;;21.80;50.90;;;;;;5097041;28;19924;-46
2023/12/09 06:56:23;;;;;;;2.00;1.55;;;21.70;50.70;;;;;;5102130;28;20036;-44
2023/12/09 06:58:49;;;;;;;2.80;1.80;;;21.70;50.80;;;;;;5095622;28;20062;-43
2023/12/09 07:01:20;;;;;;;3.28;2.15;;;21.60;50.80;;;;;;5099258;28;20028;-43
2023/12/09 07:03:48;;;;;;;2.53;1.67;;;21.60;50.90;;;;;;5104374;28;20134;-46
2023/12/09 07:06:17;;;;;;;2.38;1.70;;;21.60;50.90;;;;;;5096955;28;20107;-45
2023/12/09 07:08:44;;;;;;;2.35;1.50;;;21.70;50.70;;;;;;5092583;28;20035;-42
2023/12/09 07:11:10;;;;;;;2.95;1.33;;;21.90;50.50;;;;;;5097651;28;20105;-44
2023/12/09 07:13:38;;;;;;;2.35;1.80;;;21.90;50.60;;;;;;5105008;28;20249;-43
2023/12/09 07:16:04;;;;;;;;;;;21.80;50.60;;;;;;5100362;28;20020;-42
2023/12/09 07:18:31;;;;;;;1.92;1.60;;;21.80;50.70;;;;;;5104338;28;19908;-45
2023/12/09 07:20:57;;;;;;;1.83;1.60;;;21.70;50.70;;;;;;5100223;28;20023;-43
2023/12/09 07:23:23;;;;;;;3.10;1.80;;;21.60;50.70;;;;;;5097367;28;20032;-45
2023/12/09 07:25:49;;;;;;;2.13;1.77;;;21.60;50.80;;;;;;5099765;28;20507;-44
2023/12/09 07:28:16;;;;;;;2.00;1.80;;;21.60;51.00;;;;;;5100850;28;20029;-41
2023/12/09 07:30:42;;;;;;;2.28;1.95;;;21.60;51.10;;;;;;5099126;28;20033;-41
2023/12/09 07:33:08;;;;;;;3.22;1.92;;;21.60;51.00;;;;;;5097605;28;20044;-41
2023/12/09 07:35:34;;;;;;;3.15;1.70;;;21.60;51.00;;;;;;5104308;28;20032;-44
2023/12/09 07:38:00;;;;;;;2.90;1.70;;;21.60;51.00;;;;;;5103658;28;20123;-43
2023/12/09 07:40:26;;;;;;;1.48;1.25;;;21.50;51.00;;;;;;5100319;28;20031;-42
2023/12/09 07:42:53;;;;;;;2.05;1.80;;;21.50;51.00;;;;;;5103532;28;20020;-42
2023/12/09 07:45:19;;;;;;;1.80;1.53;;;21.50;51.10;;;;;;5103172;28;20741;-44
2023/12/09 07:47:45;;;;;;;3.85;1.65;;;21.60;51.10;;;;;;5103042;28;20031;-42
2023/12/09 07:50:11;;;;;;;2.35;1.60;;;21.80;51.00;;;;;;5092681;28;20035;-42
2023/12/09 07:52:37;;;;;;;2.03;1.60;;;21.80;50.80;;;;;;5104623;28;20040;-43
2023/12/09 07:55:04;;;;;;;2.00;1.80;;;21.80;50.80;;;;;;5103456;28;20031;-44
2023/12/09 07:57:30;;;;;;;3.03;1.60;;;21.80;50.90;;;;;;5103703;28;20024;-44
2023/12/09 07:59:56;;;;;;;2.22;1.80;;;21.70;50.90;;;;;;5102513;28;20032;-44
2023/12/09 08:02:23;;;;;;;2.20;1.50;;;21.70;51.00;;;;;;5096723;28;20066;-43
2023/12/09 08:04:49;;;;;;;2.83;1.90;;;21.60;50.80;;;;;;5103393;28;20097;-43
2023/12/09 08:07:15;;;;;;;2.90;1.90;;;21.60;51.00;;;;;;5099529;28;20088;-45
2023/12/09 08:09:41;;;;;;;1.70;1.60;;;21.50;51.00;;;;;;5095044;28;20032;-43
2023/12/09 08:12:07;;;;;;;2.30;1.90;;;21.50;51.20;;;;;;5099814;28;20024;-43
2023/12/09 08:14:34;;;;;;;5.20;1.87;;;21.60;51.30;;;;;;5102466;28;20639;-43
2023/12/09 08:17:00;;;;;;;2.13;1.92;;;21.60;51.20;;;;;;5096447;28;20058;-43
2023/12/09 08:19:26;;;;;;;2.45;1.98;;;21.60;51.20;;;;;;5095748;28;20032;-45
2023/12/09 08:21:52;;;;;;;2.40;1.70;;;21.50;51.20;;;;;;5103597;28;20372;-43
2023/12/09 08:24:18;;;;;;;3.08;2.00;;;21.50;51.30;;;;;;5102977;28;20032;-43
2023/12/09 08:26:44;;;;;;;2.20;1.73;;;21.50;51.30;;;;;;5101251;28;20035;-43
2023/12/09 08:29:14;;;;;;;2.55;1.88;;;21.60;51.10;;;;;;5093692;28;20377;-43
2023/12/09 08:31:40;;;;;;;2.72;1.75;;;21.80;51.00;;;;;;5101821;28;20035;-43
2023/12/09 08:34:06;;;;;;;2.17;1.83;;;21.90;50.70;;;;;;5102521;28;20066;-43
2023/12/09 08:36:33;;;;;;;2.05;1.73;;;21.80;50.80;;;;;;5102984;28;20032;-45
2023/12/09 08:38:59;;;;;;;1.70;1.60;;;21.80;50.90;;;;;;5096765;28;20096;-43
2023/12/09 08:41:25;;;;;;;3.22;1.90;;;21.70;50.90;;;;;;5103190;28;20131;-44
2023/12/09 08:43:52;;;;;;;2.60;1.88;;;21.70;50.90;;;;;;5096539;28;20033;-44
2023/12/09 08:46:18;;;;;;;;;;;21.60;50.90;;;;;;5100320;28;20404;-43
2023/12/09 08:48:45;;;;;;;3.08;1.90;;;21.60;51.00;;;;;;5099218;28;20651;-43
2023/12/09 08:51:11;;;;;;;2.75;1.92;;;21.50;51.10;;;;;;5102872;28;20044;-48
2023/12/09 08:53:37;;;;;;;2.80;1.98;;;21.50;51.20;;;;;;5097026;28;20047;-43
2023/12/09 08:56:04;;;;;;;2.17;1.60;;;21.60;51.20;;;;;;5101703;28;20016;-45
2023/12/09 08:58:30;;;;;;;3.60;1.70;;;21.60;51.30;;;;;;5103725;28;20039;-44
2023/12/09 09:00:56;;;;;;;2.58;2.03;;;21.60;51.20;;;;;;5098376;28;20028;-44
2023/12/09 09:03:22;;;;;;;2.88;1.80;;;21.60;51.40;;;;;;5092740;28;20381;-44
2023/12/09 09:05:49;;;;;;;2.22;2.03;;;21.50;51.20;;;;;;5098532;28;20012;-44
2023/12/09 09:08:15;;;;;;;2.28;1.70;;;21.50;51.40;;;;;;5098211;28;20477;-46
2023/12/09 09:10:41;;;;;;;3.22;2.10;;;21.50;51.40;;;;;;5098777;28;20028;-45
2023/12/09 09:13:07;;;;;;;2.00;1.60;;;21.60;51.20;;;;;;5097441;28;20103;-44
2023/12/09 09:15:33;;;;;;;3.00;2.00;;;21.80;51.10;;;;;;5099723;28;20432;-44
2023/12/09 09:18:00;;;;;;;2.20;2.00;;;21.90;51.00;;;;;;5099170;28;20089;-45
2023/12/09 09:20:27;;;;;;;2.50;1.88;;;21.80;51.00;;;;;;5102750;28;20081;-44
2023/12/09 09:22:53;;;;;;;2.60;1.95;;;21.70;51.00;;;;;;5091027;28;20071;-44
2023/12/09 09:25:19;;;;;;;2.05;1.85;;;21.70;51.00;;;;;;5098948;28;20083;-47
2023/12/09 09:27:47;;;;;;;2.38;1.80;;;21.60;51.00;;;;;;5096337;28;20032;-44
2023/12/09 09:30:13;;;;;;;2.70;2.10;;;21.60;51.10;;;;;;5096949;28;20516;-44
2023/12/09 09:32:40;;;;;;;3.92;1.80;;;21.60;51.10;;;;;;5101014;28;20040;-45
2023/12/09 09:35:07;;;;;;;4.38;2.30;;;21.50;51.30;;;;;;5099240;28;20081;-43
2023/12/09 09:37:34;;;;;;;2.85;2.10;;;21.50;51.50;;;;;;5099027;28;20043;-44
2023/12/09 09:40:04;;;;;;;2.75;1.90;;;21.60;52.00;;;;;;5101101;28;20039;-44
2023/12/09 09:42:36;;;;;;;2.13;1.90;;;21.60;51.50;;;;;;5100864;28;20028;-43
2023/12/09 09:45:17;;;;;;;2.30;1.95;;;21.60;51.40;;;;;;5096410;28;20099;-43
2023/12/09 09:47:43;;;;;;;2.10;1.90;;;21.50;51.40;;;;;;5093496;28;20039;-43
2023/12/09 09:50:10;;;;;;;2.22;1.80;;;21.50;51.50;;;;;;5101814;28;20024;-43
2023/12/09 09:52:37;;;;;;;2.17;1.90;;;21.50;51.50;;;;;;5097648;28;20052;-42
2023/12/09 09:55:06;;;;;;;2.25;1.85;;;21.60;51.90;;;;;;5099543;28;20052;-42
2023/12/09 09:57:33;;;;;;;2.33;1.88;;;21.80;51.20;;;;;;5093071;28;20038;-41
2023/12/09 09:59:59;;;;;;;1.83;1.65;;;21.90;51.10;;;;;;5089079;28;20036;-44
2023/12/09 10:02:26;;;;;;;2.10;1.70;;;21.80;51.10;;;;;;5099927;28;20030;-40
2023/12/09 10:04:53;;;;;;;2.38;1.80;;;21.80;51.20;;;;;;5099056;28;20381;-39
2023/12/09 10:07:19;;;;;;;2.22;1.92;;;21.70;51.20;;;;;;5100627;28;20040;-39
2023/12/09 10:09:46;;;;;;;2.08;1.85;;;21.70;51.30;;;;;;5097267;28;20056;-39
2023/12/09 10:12:12;;;;;;;1.73;1.63;;;21.60;51.40;;;;;;5099082;28;20036;-40
2023/12/09 10:14:38;;;;;;;2.38;1.67;;;21.60;51.40;;;;;;5099836;28;20366;-41
2023/12/09 10:17:05;;;;;;;2.15;1.95;;;21.50;51.50;;;;;;5093438;28;20032;-40
2023/12/09 10:19:33;;;;;;;2.37;1.70;;;21.50;51.80;;;;;;5099507;28;20031;-41
2023/12/09 10:21:59;;;;;;;1.95;1.60;;;21.60;51.80;;;;;;5087727;28;20047;-40
2023/12/09 10:24:25;;;;;;;2.22;2.03;;;21.60;51.80;;;;;;5098259;28;20036;-40
2023/12/09 10:26:52;;;;;;;2.40;2.10;;;21.70;51.80;;;;;;5097012;28;20024;-40
2023/12/09 10:29:18;;;;;;;2.90;1.63;;;21.60;51.80;;;;;;5099135;28;20028;-43
2023/12/09 10:31:44;;;;;;;2.88;1.92;;;21.60;51.70;;;;;;5088766;28;20028;-41
2023/12/09 10:34:14;;;;;;;3.70;1.83;;;21.50;51.80;;;;;;5096301;28;20109;-41
2023/12/09 10:36:40;;;;;;;3.05;2.00;;;21.60;51.90;;;;;;5094938;28;20028;-40
2023/12/09 10:39:08;;;;;;;2.53;1.90;;;21.70;51.70;;;;;;5101100;28;20031;-40
2023/12/09 10:41:34;;;;;;;2.38;1.92;;;21.90;51.60;;;;;;5092136;28;20268;-40
2023/12/09 10:44:04;;;;;;;2.53;1.70;;;21.80;51.40;;;;;;5098527;28;20099;-41
2023/12/09 10:46:30;;;;;;;2.60;2.10;;;21.80;51.50;;;;;;5100397;28;20028;-41
2023/12/09 10:48:56;;;;;;;2.58;1.90;;;21.70;51.60;;;;;;5094264;28;20028;-41
2023/12/09 10:51:23;;;;;;;1.98;1.70;;;21.70;51.60;;;;;;5096787;28;20451;-41
2023/12/09 10:53:49;;;;;;;2.00;1.65;;;21.60;51.70;;;;;;5098211;28;20032;-41
2023/12/09 10:56:15;;;;;;;2.70;2.25;;;21.60;51.80;;;;;;5099842;28;20079;-41
2023/12/09 10:58:42;;;;;;;3.90;2.10;;;21.50;51.80;;;;;;5096689;28;20032;-40
2023/12/09 11:01:08;;;;;;;2.38;1.90;;;21.60;52.00;;;;;;5099005;28;20089;-41
2023/12/09 11:03:34;;;;;;;2.20;2.00;;;21.60;51.90;;;;;;5093969;28;20491;-40
2023/12/09 11:06:00;;;;;;;2.05;1.85;;;21.60;51.90;;;;;;5095444;28;20059;-41
2023/12/09 11:08:29;;;;;;;2.30;1.83;;;21.60;51.80;;;;;;5100007;28;20085;-41
2023/12/09 11:10:56;;;;;;;2.13;1.80;;;21.60;51.80;;;;;;5104135;28;20032;-41
2023/12/09 11:13:26;;;;;;;2.17;1.85;;;21.60;51.90;;;;;;5097617;28;20050;-41
2023/12/09 11:16:15;;;;;;;2.75;1.92;;;21.50;52.00;;;;;;5098865;28;20020;-41
2023/12/09 11:18:49;;;;;;;3.10;2.00;;;21.60;52.00;;;;;;5102044;28;20027;-40
2023/12/09 11:21:16;;;;;;;2.20;1.85;;;21.70;51.80;;;;;;5097820;28;20511;-41
2023/12/09 11:23:50;;;;;;;2.50;2.00;;;21.90;51.70;;;;;;5100947;28;20036;-41
2023/12/09 11:26:40;;;;;;;3.00;2.00;;;21.80;51.50;;;;;;5100896;28;20031;-40
2023/12/09 11:29:09;;;;;;;2.22;1.85;;;21.80;51.70;;;;;;5099676;28;20763;-39
2023/12/09 11:31:46;;;;;;;2.30;1.83;;;21.70;51.80;;;;;;5101978;28;20036;-43
2023/12/09 11:34:16;;;;;;;2.13;1.92;;;21.70;51.80;;;;;;5102201;28;20047;-40
2023/12/09 11:36:43;;;;;;;2.88;2.25;;;21.60;51.80;;;;;;5104136;28;20020;-42
2023/12/09 11:39:22;;;;;;;2.25;2.05;;;21.60;51.90;;;;;;5095718;28;20678;-41
2023/12/09 11:41:49;;;;;;;1.92;1.80;;;21.50;52.00;;;;;;5104555;28;20036;-41
2023/12/09 11:44:15;;;;;;;3.88;2.28;;;21.60;52.20;;;;;;5094018;28;20127;-49
2023/12/09 11:46:41;;;;;;;3.42;2.13;;;21.60;52.20;;;;;;5103977;28;20423;-40
2023/12/09 11:49:08;;;;;;;3.75;2.30;;;21.70;52.20;;;;;;5096690;28;20036;-40
2023/12/09 11:51:35;;;;;;;3.63;2.15;;;21.60;52.10;;;;;;5099448;28;20074;-40
2023/12/09 11:54:02;;;;;;;2.88;1.95;;;21.60;52.00;;;;;;5103856;28;20044;-40
2023/12/09 11:56:28;;;;;;;2.30;2.10;;;21.60;52.10;;;;;;5103149;28;20035;-40
2023/12/09 11:58:55;;;;;;;3.15;2.33;;;21.50;52.30;;;;;;5103825;28;20035;-40
2023/12/09 12:01:22;;;;;;;2.83;2.30;;;21.60;52.20;;;;;;5100374;28;20058;-39
2023/12/09 12:03:49;;;;;;;2.85;2.08;;;21.70;52.00;;;;;;5093342;28;20096;-38
2023/12/09 12:06:16;;;;;;;2.87;2.00;;;21.90;51.90;;;;;;5098232;28;20047;-38
2023/12/09 12:08:43;;;;;;;2.22;1.90;;;21.90;52.30;;;;;;5099420;28;20301;-40
2023/12/09 12:11:09;;;;;;;;;;;21.90;51.70;;;;;;5099555;28;20032;-40
2023/12/09 12:13:35;;;;;;;2.15;1.88;;;21.80;51.80;;;;;;5100577;28;19962;-40
2023/12/09 12:16:02;;;;;;;2.83;1.95;;;21.80;52.00;;;;;;5102320;28;20028;-41
2023/12/09 12:18:28;;;;;;;2.80;2.35;;;21.70;52.00;;;;;;5095435;28;20051;-40
2023/12/09 12:20:56;;;;;;;1.92;1.70;;;21.70;52.10;;;;;;5102488;28;20031;-40
2023/12/09 12:23:22;;;;;;;;;;;21.60;52.00;;;;;;5103585;28;20028;-41
2023/12/09 12:25:55;;;;;;;2.25;2.05;;;21.60;52.00;;;;;;5103210;28;19938;-40
2023/12/09 12:28:22;;;;;;;2.35;2.15;;;21.60;52.10;;;;;;5098570;28;20043;-41
2023/12/09 12:30:54;;;;;;;2.40;2.20;;;21.60;52.30;;;;;;5104059;28;20035;-41
2023/12/09 12:33:22;;;;;;;3.20;2.28;;;21.70;52.30;;;;;;5098060;28;20864;-41
2023/12/09 12:35:54;;;;;;;2.45;2.10;;;21.70;52.30;;;;;;5103285;28;20036;-41
2023/12/09 12:38:24;;;;;;;3.58;2.55;;;21.60;52.30;;;;;;5103190;28;20083;-41
2023/12/09 12:40:51;;;;;;;3.38;2.40;;;21.60;52.40;;;;;;5101147;28;20028;-41
2023/12/09 12:43:17;;;;;;;3.15;2.15;;;21.50;52.40;;;;;;5096382;28;20032;-42
2023/12/09 12:45:50;;;;;;;2.30;2.03;;;21.70;52.90;;;;;;5100956;28;21698;-40
2023/12/09 12:48:17;;;;;;;2.22;2.03;;;21.80;52.10;;;;;;5095658;28;20316;-40